Time;durP1;ratioP1;P1;durP2;ratioP2;P2;SDS_P1;SDS_P2;PMS_P1;PMS_P2;Temp;Humidity;BMP_temperature;BMP_pressure;BME280_temperature;BME280_humidity;BME280_pressure;Samples;Min_cycle;Max_cycle;Signal;HPM_P1;HPM_P2
2024/03/20 00:02:20;;;;;;;41.83;30.63;;;;;;;14.84;89.48;100839.94;5072820;28;20048;-79
2024/03/20 00:05:25;;;;;;;48.15;31.80;;;;;;;15.05;89.08;100845.13;5073081;28;20052;-79
2024/03/20 00:08:29;;;;;;;48.15;32.00;;;;;;;15.04;89.45;100846.09;5073384;28;20471;-79
2024/03/20 00:11:35;;;;;;;45.38;29.88;;;;;;;14.97;89.92;100852.13;5073714;28;20040;-79
2024/03/20 00:14:39;;;;;;;46.38;30.95;;;;;;;14.83;90.75;100849.94;5073696;28;20049;-79
2024/03/20 00:17:47;;;;;;;44.13;29.98;;;;;;;14.84;91.03;100846.22;5076663;28;20056;-79
2024/03/20 00:20:51;;;;;;;44.17;30.88;;;;;;;14.93;90.77;100844.47;5076576;28;20045;-78
2024/03/20 00:23:56;;;;;;;44.63;31.58;;;;;;;14.93;90.92;100841.78;5076451;28;20045;-78
2024/03/20 00:27:01;;;;;;;43.50;30.52;;;;;;;14.58;92.69;100839.81;5076432;28;20048;-78
2024/03/20 00:30:06;;;;;;;41.63;30.42;;;;;;;14.54;93.00;100841.09;5076352;28;20049;-79
2024/03/20 00:33:11;;;;;;;46.58;30.83;;;;;;;14.57;93.54;100839.94;5064052;28;20391;-79
2024/03/20 00:36:15;;;;;;;50.05;34.28;;;;;;;14.64;92.26;100833.78;5063865;28;20036;-79
2024/03/20 00:39:19;;;;;;;53.67;36.03;;;;;;;14.49;92.93;100835.31;5076004;28;20041;-79
2024/03/20 00:42:25;;;;;;;51.40;34.83;;;;;;;14.42;93.17;100838.75;5076069;28;20048;-79
2024/03/20 00:45:30;;;;;;;55.00;36.13;;;;;;;14.40;93.14;100840.72;5063946;28;20049;-79
2024/03/20 00:48:35;;;;;;;50.58;35.10;;;;;;;14.28;93.94;100840.00;5063544;28;20049;-79
2024/03/20 00:51:40;;;;;;;54.13;35.20;;;;;;;14.39;93.10;100839.88;5075336;28;20049;-79
2024/03/20 00:54:45;;;;;;;62.83;37.97;;;;;;;14.41;92.69;100843.28;5063689;28;20052;-79
2024/03/20 00:57:50;;;;;;;54.75;36.85;;;;;;;14.37;93.25;100854.53;5075822;28;20486;-78
2024/03/20 01:00:54;;;;;;;53.58;35.33;;;;;;;14.26;93.09;100856.38;5075804;28;20040;-79
2024/03/20 01:03:59;;;;;;;51.97;35.30;;;;;;;14.36;93.25;100844.72;5075830;28;20053;-79
2024/03/20 01:07:03;;;;;;;64.32;39.25;;;;;;;14.30;92.56;100847.00;5075728;28;20391;-79
2024/03/20 01:10:08;;;;;;;59.22;38.17;;;;;;;14.33;92.76;100849.41;5063321;28;20044;-79
2024/03/20 01:13:13;;;;;;;58.00;37.38;;;;;;;14.27;93.74;100852.66;5075524;28;20044;-79
2024/03/20 01:16:18;;;;;;;58.33;37.17;;;;;;;14.25;93.49;100857.34;5075484;28;20040;-79
2024/03/20 01:19:22;;;;;;;59.70;37.70;;;;;;;14.20;94.01;100858.78;5075044;28;20063;-79
2024/03/20 01:22:31;;;;;;;57.67;37.58;;;;;;;14.24;93.41;100855.66;5075263;28;20040;-79
2024/03/20 01:25:36;;;;;;;59.70;37.22;;;;;;;14.45;93.10;100860.03;5075401;28;20036;-79
2024/03/20 01:28:41;;;;;;;61.72;38.38;;;;;;;14.43;93.01;100856.63;5074928;28;20044;-79
2024/03/20 01:31:46;;;;;;;62.78;39.03;;;;;;;14.62;92.17;100852.00;5075129;28;20041;-79
2024/03/20 01:34:50;;;;;;;63.20;38.70;;;;;;;14.65;91.45;100849.00;5075236;28;20380;-79
2024/03/20 01:37:55;;;;;;;60.97;39.13;;;;;;;14.67;90.90;100855.13;5075190;28;20044;-79
2024/03/20 01:40:59;;;;;;;58.08;36.80;;;;;;;14.57;91.01;100848.91;5075154;28;20052;-79
2024/03/20 01:44:04;;;;;;;54.25;36.63;;;;;;;14.30;92.47;100854.22;5075060;28;20045;-79
2024/03/20 01:47:08;;;;;;;59.88;37.97;;;;;;;14.31;92.24;100854.13;5074992;28;20452;-79
2024/03/20 01:50:14;;;;;;;58.13;36.15;;;;;;;14.37;91.80;100841.03;5074624;28;20041;-79
2024/03/20 01:53:18;;;;;;;56.28;35.97;;;;;;;14.50;91.83;100844.22;5074896;28;20040;-79
2024/03/20 01:56:23;;;;;;;54.85;35.10;;;;;;;14.27;91.76;100849.09;5074813;28;20076;-79
2024/03/20 01:59:28;;;;;;;53.97;34.25;;;;;;;14.04;93.24;100855.84;5074894;28;20383;-79
2024/03/20 02:02:32;;;;;;;49.30;34.35;;;;;;;14.25;92.37;100848.41;5062416;28;20387;-79
2024/03/20 02:05:37;;;;;;;53.78;33.22;;;;;;;14.07;92.72;100851.00;5062451;28;20044;-79
2024/03/20 02:08:41;;;;;;;44.20;31.70;;;;;;;13.93;93.89;100842.50;5062368;28;20052;-79
2024/03/20 02:11:46;;;;;;;47.85;31.23;;;;;;;13.90;93.82;100846.31;5074671;28;20495;-78
2024/03/20 02:14:50;;;;;;;49.47;30.95;;;;;;;13.64;95.22;100843.38;5074509;28;20048;-79
2024/03/20 02:17:55;;;;;;;47.85;32.28;;;;;;;13.84;94.51;100838.81;5074163;28;20040;-78
2024/03/20 02:21:09;;;;;;;48.17;31.17;;;;;;;13.96;94.11;100850.31;5074451;28;20388;-78
2024/03/20 02:24:17;;;;;;;52.92;32.97;;;;;;;14.06;93.50;100845.75;5074398;28;20041;-79
2024/03/20 02:27:22;;;;;;;51.97;33.60;;;;;;;13.89;94.22;100852.75;5061997;28;20045;-79
2024/03/20 02:30:26;;;;;;;50.33;34.75;;;;;;;14.02;93.57;100847.03;5074355;28;20052;-79
2024/03/20 02:33:32;;;;;;;49.42;32.72;;;;;;;14.03;93.27;100846.03;5074236;28;20049;-79
2024/03/20 02:36:36;;;;;;;49.53;32.85;;;;;;;13.96;93.80;100837.66;5061724;28;20387;-79
2024/03/20 02:39:41;;;;;;;52.33;34.13;;;;;;;13.93;93.71;100842.50;5074418;28;20037;-79
2024/03/20 02:42:45;;;;;;;53.63;34.58;;;;;;;13.93;93.95;100840.66;5074083;28;20041;-79
2024/03/20 02:45:50;;;;;;;51.92;32.97;;;;;;;13.81;94.14;100835.56;5073799;28;20379;-79
2024/03/20 02:48:55;;;;;;;49.45;32.80;;;;;;;13.87;94.23;100841.25;5074029;28;20044;-78
2024/03/20 02:52:00;;;;;;;53.88;33.63;;;;;;;13.95;94.26;100844.06;5073951;28;20396;-79
2024/03/20 02:55:05;;;;;;;53.58;34.55;;;;;;;14.00;93.80;100849.03;5073971;28;20040;-79
2024/03/20 02:58:10;;;;;;;61.88;35.45;;;;;;;13.99;93.76;100841.94;5073911;28;20044;-78
2024/03/20 03:01:14;;;;;;;57.42;34.33;;;;;;;13.98;93.67;100848.31;5073883;28;20044;-77
2024/03/20 03:04:19;;;;;;;54.20;34.85;;;;;;;13.90;93.76;100849.03;5073855;28;20395;-77
2024/03/20 03:07:26;;;;;;;55.15;34.03;;;;;;;13.96;93.48;100844.91;5073906;28;20044;-77
2024/03/20 03:10:30;;;;;;;51.60;33.08;;;;;;;14.01;94.00;100842.63;5073565;28;20048;-77
2024/03/20 03:13:35;;;;;;;56.92;33.00;;;;;;;14.21;93.02;100855.97;5073521;28;20044;-77
2024/03/20 03:16:39;;;;;;;48.15;33.50;;;;;;;14.16;92.34;100854.69;5073763;28;20052;-77
2024/03/20 03:19:53;;;;;;;51.80;31.77;;;;;;;14.03;93.18;100854.13;5061567;28;20044;-77
2024/03/20 03:22:57;;;;;;;52.85;33.33;;;;;;;13.80;93.83;100850.88;5073741;28;20044;-77
2024/03/20 03:26:02;;;;;;;47.78;31.77;;;;;;;13.78;94.19;100854.72;5073673;28;20456;-78
2024/03/20 03:29:06;;;;;;;46.35;32.30;;;;;;;13.78;94.54;100852.00;5073745;28;20040;-77
2024/03/20 03:32:11;;;;;;;49.97;31.60;;;;;;;13.70;95.30;100852.75;5061397;28;20040;-77
2024/03/20 03:35:15;;;;;;;52.22;31.67;;;;;;;13.75;95.24;100852.34;5073592;28;20426;-77
2024/03/20 03:38:19;;;;;;;55.00;33.78;;;;;;;13.80;95.23;100858.16;5073511;28;20048;-77
2024/03/20 03:41:24;;;;;;;51.40;33.47;;;;;;;13.77;95.10;100853.88;5061173;28;20045;-77
2024/03/20 03:44:29;;;;;;;53.15;33.63;;;;;;;13.84;95.22;100857.72;5073685;28;20392;-77
2024/03/20 03:52:05;;;;;;;46.92;30.13;;;;;;;13.70;95.44;100871.66;5076979;28;20044;-78
2024/03/20 03:55:10;;;;;;;47.03;31.10;;;;;;;13.77;95.50;100864.69;5077225;28;20048;-78
2024/03/20 03:58:15;;;;;;;56.03;34.22;;;;;;;13.79;95.24;100868.09;5053028;28;20045;-78
2024/03/20 04:01:21;;;;;;;47.88;33.00;;;;;;;13.87;95.84;100870.94;5076849;28;20040;-78
2024/03/20 04:04:25;;;;;;;48.15;31.55;;;;;;;13.80;96.09;100868.94;5076867;28;20044;-78
2024/03/20 04:07:30;;;;;;;51.10;32.28;;;;;;;13.95;95.51;100867.53;5076977;28;20041;-78
2024/03/20 04:10:36;;;;;;;53.20;33.20;;;;;;;13.98;95.97;100870.75;5076933;28;20048;-78
2024/03/20 04:13:41;;;;;;;57.97;35.30;;;;;;;13.94;96.04;100871.19;5064621;28;20048;-78
2024/03/20 04:16:45;;;;;;;67.20;38.15;;;;;;;13.94;96.08;100872.06;5076688;28;20044;-77
2024/03/20 04:19:50;;;;;;;67.93;38.50;;;;;;;13.95;95.62;100873.75;5076995;28;20048;-78
2024/03/20 04:22:55;;;;;;;65.63;37.25;;;;;;;14.05;93.59;100879.13;5076741;28;20048;-78
2024/03/20 04:25:59;;;;;;;73.32;38.63;;;;;;;13.84;94.30;100878.44;5076918;28;20052;-78
2024/03/20 04:29:04;;;;;;;67.57;39.38;;;;;;;13.91;95.31;100871.47;5076592;28;20041;-78
2024/03/20 04:32:10;;;;;;;73.82;38.10;;;;;;;13.93;95.14;100885.66;5064247;28;20048;-78
2024/03/20 04:35:14;;;;;;;56.65;33.38;;;;;;;13.97;94.58;100879.88;5076471;28;20045;-77
2024/03/20 04:38:19;;;;;;;52.55;31.40;;;;;;;13.86;94.01;100889.94;5076377;28;20057;-77
2024/03/20 04:41:25;;;;;;;45.30;30.90;;;;;;;13.79;94.39;100883.41;5076283;28;20045;-77
2024/03/20 04:44:30;;;;;;;43.60;30.08;;;;;;;13.68;94.78;100884.41;5076248;28;20056;-78
2024/03/20 04:47:35;;;;;;;51.97;30.92;;;;;;;13.67;95.03;100878.19;5076211;28;20036;-77
2024/03/20 04:50:40;;;;;;;53.28;31.70;;;;;;;13.62;94.41;100893.94;5075682;28;20044;-77
2024/03/20 04:53:45;;;;;;;46.08;29.85;;;;;;;13.53;94.81;100883.97;5076032;28;20048;-77
2024/03/20 04:56:49;;;;;;;52.20;30.60;;;;;;;13.39;95.55;100897.00;5075942;28;20049;-77
2024/03/20 04:59:54;;;;;;;47.30;29.88;;;;;;;13.25;96.50;100898.28;5075980;28;20464;-77
2024/03/20 05:02:58;;;;;;;48.78;30.45;;;;;;;13.21;97.15;100898.69;5075922;28;20045;-77
2024/03/20 05:06:03;;;;;;;49.53;31.60;;;;;;;13.34;96.17;100902.81;5063551;28;20041;-77
2024/03/20 05:09:08;;;;;;;54.22;31.58;;;;;;;13.31;96.89;100899.53;5075784;28;20044;-77
2024/03/20 05:12:12;;;;;;;55.85;31.48;;;;;;;13.26;95.95;100913.44;5075760;28;20036;-77
2024/03/20 05:15:16;;;;;;;55.90;31.73;;;;;;;13.34;96.43;100910.91;5063379;28;20041;-77
2024/03/20 05:18:21;;;;;;;55.63;31.85;;;;;;;13.26;96.27;100912.63;5051727;28;20056;-77
2024/03/20 05:21:25;;;;;;;57.72;32.38;;;;;;;13.31;96.55;100905.78;5063207;28;20040;-77
2024/03/20 05:24:30;;;;;;;59.53;35.03;;;;;;;13.16;97.09;100912.56;5075445;28;20040;-77
2024/03/20 05:27:34;;;;;;;57.08;33.83;;;;;;;13.17;97.43;100924.19;5075393;28;20044;-77
2024/03/20 05:30:39;;;;;;;62.40;36.53;;;;;;;13.10;97.67;100923.03;5075321;28;20033;-77
2024/03/20 05:33:43;;;;;;;62.50;35.63;;;;;;;13.21;98.03;100931.88;5075337;28;20040;-77
2024/03/20 05:36:48;;;;;;;65.18;35.58;;;;;;;13.20;98.02;100923.94;5075149;28;20467;-77
2024/03/20 05:39:52;;;;;;;56.13;34.40;;;;;;;13.26;97.91;100934.19;5063153;28;20040;-78
2024/03/20 05:42:57;;;;;;;56.17;32.22;;;;;;;13.39;97.30;100941.00;5075100;28;20049;-77
2024/03/20 05:46:03;;;;;;;55.45;34.25;;;;;;;13.46;97.23;100942.16;5062793;28;20048;-77
2024/03/20 05:49:08;;;;;;;52.72;34.00;;;;;;;13.21;97.88;100950.75;5075041;28;20044;-77
2024/03/20 05:52:12;;;;;;;57.47;33.92;;;;;;;13.24;98.18;100952.31;5074917;28;20041;-77
2024/03/20 05:55:19;;;;;;;58.90;34.97;;;;;;;13.24;98.14;100955.00;5074971;28;20048;-77
2024/03/20 05:58:23;;;;;;;55.20;34.03;;;;;;;13.23;98.19;100951.47;5062477;28;20049;-78
2024/03/20 06:01:28;;;;;;;60.05;34.85;;;;;;;13.20;98.81;100948.19;5074716;28;20048;-78
2024/03/20 06:04:33;;;;;;;60.50;35.65;;;;;;;13.25;98.70;100957.59;5074727;28;20044;-78
2024/03/20 06:07:38;;;;;;;58.80;34.97;;;;;;;13.34;97.77;100948.66;5074612;28;20048;-78
2024/03/20 06:10:43;;;;;;;55.95;34.28;;;;;;;13.23;98.76;100956.00;5074625;28;20044;-78
2024/03/20 06:13:48;;;;;;;59.53;35.33;;;;;;;13.40;98.14;100958.91;5073885;28;20463;-78
2024/03/20 06:16:52;;;;;;;60.00;34.25;;;;;;;13.43;98.24;100955.91;5068472;28;20040;-79
2024/03/20 06:19:57;;;;;;;62.03;35.08;;;;;;;13.57;98.06;100966.34;5056343;28;20041;-80
2024/03/20 06:23:02;;;;;;;56.25;34.05;;;;;;;13.57;97.58;100966.34;5054222;28;20484;-77
2024/03/20 06:26:07;;;;;;;62.47;35.45;;;;;;;13.65;97.67;100974.56;5053870;28;20037;-77
2024/03/20 06:29:12;;;;;;;61.08;35.33;;;;;;;13.72;97.34;100972.19;5054294;28;20461;-77
2024/03/20 06:32:18;;;;;;;57.58;34.75;;;;;;;13.95;96.18;100978.19;5042067;28;20045;-77
2024/03/20 06:35:23;;;;;;;59.00;34.90;;;;;;;13.91;96.28;100984.81;5052700;28;20373;-77
2024/03/20 06:38:27;;;;;;;62.83;37.80;;;;;;;13.97;96.22;100986.97;5041647;28;20476;-77
2024/03/20 06:41:32;;;;;;;64.53;37.42;;;;;;;14.22;94.58;100981.84;5052732;28;20037;-78
2024/03/20 06:44:37;;;;;;;57.47;35.97;;;;;;;14.25;93.91;100986.13;5054241;28;20045;-77
2024/03/20 06:47:43;;;;;;;65.60;35.95;;;;;;;14.25;94.56;100996.91;5053986;28;20041;-77
2024/03/20 06:50:48;;;;;;;66.00;38.80;;;;;;;14.17;94.72;101002.19;5053464;28;20045;-77
2024/03/20 06:53:53;;;;;;;63.15;36.25;;;;;;;14.21;94.42;100993.66;5053944;28;20037;-77
2024/03/20 06:57:03;;;;;;;62.40;37.30;;;;;;;14.30;94.58;100997.34;5053917;28;20408;-77
2024/03/20 07:00:17;;;;;;;70.70;39.58;;;;;;;14.27;93.79;100998.47;5041599;28;20045;-77
2024/03/20 07:03:22;;;;;;;67.88;36.22;;;;;;;14.18;94.65;101004.75;5053907;28;20041;-77
2024/03/20 07:06:27;;;;;;;63.25;36.35;;;;;;;14.11;94.92;101008.16;5053766;28;20045;-77
2024/03/20 07:09:32;;;;;;;64.18;35.20;;;;;;;14.17;95.10;101007.59;5053791;28;20472;-77
2024/03/20 07:12:37;;;;;;;61.50;35.60;;;;;;;14.16;95.22;101016.69;5059191;28;20045;-77
2024/03/20 07:15:43;;;;;;;62.35;35.55;;;;;;;14.23;95.33;101015.13;5053325;28;20049;-78
2024/03/20 07:18:48;;;;;;;56.80;35.00;;;;;;;14.18;94.93;101020.09;5052867;28;20049;-78
2024/03/20 07:21:52;;;;;;;61.90;36.17;;;;;;;14.20;94.57;101023.50;5053598;28;20045;-79
2024/03/20 07:24:57;;;;;;;65.68;35.75;;;;;;;14.38;94.21;101029.94;5056633;28;20045;-79
2024/03/20 07:28:02;;;;;;;65.47;36.75;;;;;;;14.58;91.91;101038.88;5051918;28;20404;-79
2024/03/20 07:31:08;;;;;;;64.68;36.55;;;;;;;14.46;91.68;101048.13;5062602;28;20044;-77
2024/03/20 07:34:13;;;;;;;57.47;35.65;;;;;;;14.47;91.76;101053.38;5067987;28;20041;-77
2024/03/20 07:37:18;;;;;;;62.65;37.20;;;;;;;14.63;91.98;101052.81;5043979;28;20052;-78
2024/03/20 07:40:24;;;;;;;60.83;34.05;;;;;;;14.71;90.79;101043.00;5062320;28;20041;-88
2024/03/20 07:43:29;;;;;;;60.13;34.50;;;;;;;14.76;90.80;101051.50;5076618;28;20399;-88
2024/03/20 07:46:34;;;;;;;60.22;35.17;;;;;;;14.79;90.38;101059.31;5064630;28;20055;-72
2024/03/20 07:49:39;;;;;;;59.20;34.80;;;;;;;14.81;90.44;101051.09;5075994;28;20044;-76
2024/03/20 07:52:44;;;;;;;58.53;33.53;;;;;;;14.84;90.22;101043.53;5076365;28;20036;-71
2024/03/20 07:55:50;;;;;;;53.53;33.63;;;;;;;14.92;89.70;101049.06;5076184;28;20044;-75
2024/03/20 07:58:55;;;;;;;61.40;33.28;;;;;;;15.22;88.65;101055.25;5076356;28;20044;-75
2024/03/20 08:02:00;;;;;;;52.95;30.58;;;;;;;15.16;88.76;101053.16;5059518;28;20033;-74
2024/03/20 08:05:06;;;;;;;58.88;33.67;;;;;;;15.10;88.54;101059.13;5056443;28;20037;-73
2024/03/20 08:08:11;;;;;;;48.58;29.83;;;;;;;15.26;87.97;101064.75;5056299;28;20049;-73
2024/03/20 08:11:16;;;;;;;48.47;30.80;;;;;;;15.33;87.57;101060.50;5043971;28;20045;-76
2024/03/20 08:14:21;;;;;;;41.50;30.10;;;;;;;15.38;87.77;101071.72;5055821;28;20049;-77
2024/03/20 08:17:29;;;;;;;46.28;30.73;;;;;;;15.51;86.81;101062.28;5055940;28;20041;-76
2024/03/20 08:20:38;;;;;;;44.20;28.70;;;;;;;15.48;86.39;101062.56;5055924;28;20044;-77
2024/03/20 08:23:43;;;;;;;45.90;27.73;;;;;;;15.40;86.36;101069.72;5055783;28;20484;-76
2024/03/20 08:26:47;;;;;;;42.00;27.65;;;;;;;15.74;85.24;101070.00;5043693;28;20045;-77
2024/03/20 08:29:54;;;;;;;40.80;27.38;;;;;;;15.90;85.07;101073.75;5043868;28;20045;-76
2024/03/20 08:32:59;;;;;;;42.55;28.02;;;;;;;15.88;85.06;101078.47;5055746;28;20392;-76
2024/03/20 08:36:08;;;;;;;39.50;26.90;;;;;;;15.61;84.18;101073.94;5054830;28;20049;-76
2024/03/20 08:39:13;;;;;;;37.90;25.65;;;;;;;15.24;86.22;101074.88;5043314;28;20045;-77
2024/03/20 08:42:17;;;;;;;42.05;26.55;;;;;;;15.72;84.78;101072.88;5058193;28;20049;-77
2024/03/20 08:45:22;;;;;;;38.42;26.13;;;;;;;16.32;81.55;101081.34;5055505;28;20041;-76
2024/03/20 08:48:30;;;;;;;38.72;26.92;;;;;;;16.23;81.99;101073.13;5013292;28;20046;-76
2024/03/20 08:51:34;;;;;;;39.67;26.92;;;;;;;15.89;83.17;101072.09;5068021;28;20044;-77
2024/03/20 08:54:43;;;;;;;39.95;26.92;;;;;;;15.86;84.01;101068.81;5073139;28;20045;-77
2024/03/20 08:57:48;;;;;;;36.55;26.00;;;;;;;15.89;83.34;101072.09;5073208;28;20056;-77
2024/03/20 09:00:53;;;;;;;35.92;26.20;;;;;;;16.00;82.41;101069.16;5061547;28;20052;-77
2024/03/20 09:03:58;;;;;;;33.88;24.58;;;;;;;16.01;82.17;101075.41;5072853;28;20044;-77
2024/03/20 09:07:03;;;;;;;37.50;26.10;;;;;;;15.93;83.01;101062.63;5072910;28;20036;-76
2024/03/20 09:10:07;;;;;;;38.75;26.40;;;;;;;15.88;82.99;101074.91;5061360;28;20040;-76
2024/03/20 09:13:12;;;;;;;42.20;28.33;;;;;;;15.94;83.13;101069.78;5061367;28;20037;-76
2024/03/20 09:16:16;;;;;;;38.47;27.27;;;;;;;15.88;83.43;101080.34;5072600;28;20396;-79
2024/03/20 09:19:20;;;;;;;32.97;25.17;;;;;;;15.82;83.81;101083.66;5072508;28;20044;-78
2024/03/20 09:22:25;;;;;;;38.25;25.80;;;;;;;15.86;84.08;101083.19;5057277;28;20041;-78
2024/03/20 09:25:29;;;;;;;35.67;25.83;;;;;;;15.93;83.54;101083.44;5064382;28;20041;-78
2024/03/20 09:28:33;;;;;;;40.58;26.42;;;;;;;15.86;83.38;101082.34;5074548;28;20036;-77
2024/03/20 09:31:38;;;;;;;39.72;26.23;;;;;;;15.84;83.23;101079.81;5076293;28;20103;-78
2024/03/20 09:34:45;;;;;;;39.80;26.27;;;;;;;15.89;83.18;101076.63;5094846;28;20040;-78
2024/03/20 09:37:49;;;;;;;38.53;26.10;;;;;;;16.16;82.50;101080.19;5081865;28;20040;-79
2024/03/20 09:40:57;;;;;;;37.20;25.40;;;;;;;16.06;82.73;101075.81;5074575;28;20045;-79
2024/03/20 09:44:06;;;;;;;40.85;25.30;;;;;;;16.16;81.61;101077.47;5074531;28;20041;-78
2024/03/20 09:47:12;;;;;;;37.22;25.10;;;;;;;16.24;81.90;101072.13;5074291;28;20403;-79
2024/03/20 09:50:18;;;;;;;34.63;23.27;;;;;;;16.53;80.68;101081.94;5054191;28;20040;-78
2024/03/20 09:53:24;;;;;;;34.60;23.98;;;;;;;16.72;79.20;101070.91;5054443;28;20037;-79
2024/03/20 09:56:30;;;;;;;36.75;23.98;;;;;;;16.91;78.75;101071.56;5054330;28;20049;-79
2024/03/20 09:59:35;;;;;;;36.22;24.25;;;;;;;16.73;79.31;101073.47;5054144;28;20045;-78
2024/03/20 10:02:39;;;;;;;34.10;23.15;;;;;;;16.79;79.73;101078.25;5060131;28;20041;-78
2024/03/20 10:05:45;;;;;;;32.53;23.15;;;;;;;16.88;78.34;101076.47;5073363;28;20045;-78
2024/03/20 10:08:49;;;;;;;29.45;22.40;;;;;;;16.48;79.65;101067.94;5060689;28;20060;-79
2024/03/20 10:11:55;;;;;;;35.25;23.65;;;;;;;16.29;80.91;101069.78;5049216;28;20044;-78
2024/03/20 10:15:06;;;;;;;35.63;23.67;;;;;;;16.22;81.70;101070.56;5060172;28;20479;-79
2024/03/20 10:18:18;;;;;;;31.75;23.70;;;;;;;16.27;82.09;101060.13;5060859;28;20048;-79
2024/03/20 10:21:23;;;;;;;33.47;22.67;;;;;;;16.33;81.18;101064.94;5060691;28;20032;-78
2024/03/20 10:24:28;;;;;;;32.13;23.40;;;;;;;16.39;80.66;101058.91;5061183;28;20399;-78
2024/03/20 10:27:37;;;;;;;32.08;22.38;;;;;;;16.42;80.74;101061.28;5061387;28;20511;-78
2024/03/20 10:30:42;;;;;;;32.63;22.88;;;;;;;16.31;80.65;101061.53;5073526;28;20044;-78
2024/03/20 10:33:49;;;;;;;32.20;23.38;;;;;;;16.36;80.60;101061.06;5073455;28;20407;-78
2024/03/20 10:36:56;;;;;;;28.23;21.42;;;;;;;16.26;81.14;101050.31;5073402;28;20056;-78
2024/03/20 10:40:01;;;;;;;32.38;22.98;;;;;;;16.28;80.76;101059.97;5073548;28;20048;-78
2024/03/20 10:43:10;;;;;;;36.08;23.75;;;;;;;16.29;80.85;101050.84;5073395;28;20041;-77
2024/03/20 10:46:16;;;;;;;30.42;20.90;;;;;;;16.37;80.21;101065.50;5073028;28;20041;-78
2024/03/20 10:49:23;;;;;;;30.17;20.02;;;;;;;16.42;79.46;101065.88;5073663;28;20045;-78
2024/03/20 10:52:28;;;;;;;28.55;21.35;;;;;;;16.51;78.89;101062.22;5060844;28;20053;-77
2024/03/20 10:55:34;;;;;;;29.55;20.92;;;;;;;16.68;78.13;101069.53;5073272;28;20044;-77
2024/03/20 10:58:40;;;;;;;30.13;19.75;;;;;;;16.59;78.54;101065.06;5072829;28;20044;-77
2024/03/20 11:02:08;;;;;;;29.80;19.55;;;;;;;16.83;77.79;101059.81;5073163;28;20044;-78
2024/03/20 11:05:40;;;;;;;25.73;19.00;;;;;;;17.10;77.24;101058.84;5073510;28;20399;-78
2024/03/20 11:08:59;;;;;;;31.98;20.60;;;;;;;17.09;76.66;101055.25;5073370;28;20040;-78
2024/03/20 11:12:27;;;;;;;26.45;18.48;;;;;;;17.07;76.36;101048.28;5073089;28;20032;-78
2024/03/20 11:15:33;;;;;;;29.40;20.70;;;;;;;17.03;76.63;101055.06;5060271;28;20036;-79
2024/03/20 11:18:37;;;;;;;31.02;21.30;;;;;;;16.99;76.91;101057.22;5072975;28;20434;-79
2024/03/20 11:21:46;;;;;;;28.55;19.15;;;;;;;17.10;76.20;101051.56;5072900;28;20044;-78
2024/03/20 11:24:53;;;;;;;27.80;20.70;;;;;;;17.31;76.05;101056.59;5072824;28;20045;-79
2024/03/20 11:27:58;;;;;;;30.10;21.23;;;;;;;17.28;75.74;101052.31;5072987;28;20399;-79
2024/03/20 11:31:03;;;;;;;29.60;20.80;;;;;;;17.11;76.24;101047.81;5072899;28;20049;-77
2024/03/20 11:34:07;;;;;;;30.95;22.08;;;;;;;16.92;77.16;101046.16;5072986;28;20044;-78
2024/03/20 11:37:19;;;;;;;30.05;21.67;;;;;;;16.88;77.43;101044.78;5072843;28;20147;-78
2024/03/20 11:40:24;;;;;;;28.98;20.75;;;;;;;17.04;76.21;101045.91;5054950;28;20049;-78
2024/03/20 11:43:31;;;;;;;31.10;21.30;;;;;;;16.80;77.25;101050.16;5052800;28;20041;-80
2024/03/20 11:46:36;;;;;;;28.65;20.48;;;;;;;17.00;76.94;101039.94;5052533;28;20045;-78
2024/03/20 11:49:47;;;;;;;34.70;24.13;;;;;;;16.75;77.59;101044.34;5073147;28;20044;-79
2024/03/20 11:52:53;;;;;;;35.72;22.92;;;;;;;16.90;77.04;101040.06;5092631;28;20036;-80
2024/03/20 11:55:57;;;;;;;31.02;21.85;;;;;;;16.90;77.05;101031.91;5080450;28;20040;-80
2024/03/20 11:59:02;;;;;;;29.02;21.75;;;;;;;16.96;77.47;101040.44;5092240;28;20052;-81
2024/03/20 12:02:11;;;;;;;30.20;21.95;;;;;;;16.71;78.17;101029.38;5093016;28;20475;-81
2024/03/20 12:05:16;;;;;;;28.65;21.10;;;;;;;16.78;78.37;101022.34;5092912;28;20494;-80
2024/03/20 12:08:22;;;;;;;34.15;23.13;;;;;;;16.91;78.04;101024.66;5092485;28;20487;-79
2024/03/20 12:11:28;;;;;;;27.83;21.48;;;;;;;16.95;77.81;101031.44;5094907;28;20048;-79
2024/03/20 12:14:34;;;;;;;28.08;21.25;;;;;;;16.94;77.72;101024.31;5072510;28;20043;-79
2024/03/20 12:17:39;;;;;;;29.23;20.63;;;;;;;17.12;77.24;101029.69;5096377;28;20039;-78
2024/03/20 12:20:44;;;;;;;28.17;20.02;;;;;;;17.22;76.35;101025.84;5096522;28;20418;-80
2024/03/20 12:23:52;;;;;;;27.95;21.10;;;;;;;17.29;76.07;101023.34;5096291;28;20483;-76
2024/03/20 12:26:56;;;;;;;25.48;19.90;;;;;;;17.48;75.02;101032.09;5096123;28;20040;-74
2024/03/20 12:30:01;;;;;;;27.65;20.88;;;;;;;17.46;74.25;101028.69;5053697;28;20037;-69
2024/03/20 12:33:07;;;;;;;28.80;20.58;;;;;;;17.31;77.12;101029.44;5055899;28;20041;-76
2024/03/20 12:36:12;;;;;;;29.40;19.98;;;;;;;17.39;76.98;101030.34;5055651;28;20053;-73
2024/03/20 12:39:17;;;;;;;26.13;20.38;;;;;;;17.34;76.76;101029.97;5055493;28;20049;-74
2024/03/20 12:42:22;;;;;;;26.05;18.90;;;;;;;17.89;75.32;101035.00;5066560;28;20053;-77
2024/03/20 12:45:27;;;;;;;29.20;20.30;;;;;;;17.88;74.55;101027.84;5075453;28;20052;-78
2024/03/20 12:48:33;;;;;;;25.63;19.95;;;;;;;18.11;72.69;101029.81;5075785;28;20445;-76
2024/03/20 12:51:38;;;;;;;27.15;19.33;;;;;;;17.99;73.02;101024.84;5091749;28;20048;-76
2024/03/20 12:54:47;;;;;;;24.73;19.50;;;;;;;17.80;73.81;101020.53;5073581;28;20044;-76
2024/03/20 12:57:52;;;;;;;28.27;19.95;;;;;;;18.03;72.38;101021.63;5073249;28;20447;-76
2024/03/20 13:00:56;;;;;;;25.75;19.73;;;;;;;17.69;73.64;101025.41;5073343;28;20041;-76
2024/03/20 13:04:01;;;;;;;24.45;19.15;;;;;;;17.70;73.79;101014.38;5073231;28;20044;-76
2024/03/20 13:07:12;;;;;;;23.02;17.90;;;;;;;17.90;72.87;101017.69;5061570;28;20044;-76
2024/03/20 13:10:16;;;;;;;25.45;18.58;;;;;;;18.06;71.40;101006.84;5073139;28;20048;-76
2024/03/20 13:13:23;;;;;;;22.60;18.40;;;;;;;17.94;71.25;101008.19;5061460;28;20049;-76
2024/03/20 13:16:27;;;;;;;23.38;17.33;;;;;;;18.00;71.56;101010.22;5061469;28;20519;-75
2024/03/20 13:19:32;;;;;;;23.15;18.63;;;;;;;17.95;72.54;101001.72;5072554;28;20052;-75
2024/03/20 13:22:42;;;;;;;21.05;16.83;;;;;;;17.98;72.40;100998.69;5072663;28;20044;-75
2024/03/20 13:25:47;;;;;;;25.50;18.48;;;;;;;17.99;72.29;101000.41;5084065;28;20048;-75
2024/03/20 13:28:52;;;;;;;21.60;15.95;;;;;;;18.25;72.06;101001.09;5095154;28;20055;-75
2024/03/20 13:32:00;;;;;;;23.92;17.55;;;;;;;18.56;71.00;101002.19;5094987;28;20048;-76
2024/03/20 13:35:08;;;;;;;22.98;17.25;;;;;;;18.63;69.40;101003.19;5094934;28;20044;-76
2024/03/20 13:38:19;;;;;;;22.58;16.67;;;;;;;18.76;68.88;101002.69;5094814;28;20044;-76
2024/03/20 13:41:35;;;;;;;22.45;17.20;;;;;;;18.67;68.72;100998.25;5094523;28;20044;-76
2024/03/20 13:44:39;;;;;;;21.70;17.05;;;;;;;18.57;69.28;101003.00;5094842;28;20040;-76
2024/03/20 13:47:44;;;;;;;21.17;16.10;;;;;;;18.60;69.69;100998.09;5094640;28;20490;-77
2024/03/20 13:50:49;;;;;;;21.58;16.15;;;;;;;18.72;69.08;100990.44;5093608;28;20056;-76
2024/03/20 13:53:54;;;;;;;20.52;15.43;;;;;;;18.87;67.13;100986.00;5094676;28;20387;-77
2024/03/20 13:56:58;;;;;;;20.95;16.17;;;;;;;18.69;67.99;100979.88;5094541;28;20036;-77
2024/03/20 14:00:12;;;;;;;19.77;14.90;;;;;;;18.52;68.58;100983.63;5094455;28;20391;-76
2024/03/20 14:03:16;;;;;;;17.88;14.65;;;;;;;18.44;68.81;100979.03;5094175;28;20052;-76
2024/03/20 14:06:22;;;;;;;21.73;15.38;;;;;;;18.27;69.50;100974.59;5094397;28;20043;-77
2024/03/20 14:09:27;;;;;;;20.15;14.90;;;;;;;17.82;71.13;100977.78;5094094;28;20040;-76